Latest Weather Observations for Burketown Airport

IDQ60801

Issued at 6:02 pm EST Friday 28 April 2017 (issued every 30 minutes, with the page automatically refreshed every 10 minutes)

About weather observations | Map of weather stations | Latest weather observations for QLD | Other Formats
Station Details ID: 029077 Name: BURKETOWN AIRPORT Lat: -17.75 Lon: 139.54 Height: 5.7 m
Data from the previous 72 hours. | See also: Recent months at Burketown Airport
Date/Time
EST
Temp
°C
App
Temp
°C
Dew
Point
°C
Rel
Hum
%
Delta-T
°C
Wind Press
QNH
hPa
Press
MSL
hPa
Rain since
9am
mm
Dir  Spd
km/h
Gust
km/h
Spd
kts
Gust
kts
28/06:00pm 26.0 19.8 -0.1 18 12.1 S 22 32 12 17 1014.3 1014.2 0.0
28/05:30pm 27.3 20.7 -0.7 16 12.9 S 24 35 13 19 1013.9 - 0.0
28/05:00pm 28.0 21.7 -1.0 15 13.4 SSE 22 33 12 18 1013.8 - 0.0
28/04:30pm 27.8 20.6 -2.1 14 13.5 SSE 26 37 14 20 1013.7 - 0.0
28/04:00pm 27.5 20.4 -1.4 15 13.2 SSE 26 35 14 19 1013.7 - 0.0
28/03:30pm 27.8 19.9 -1.2 15 13.3 SSE 30 41 16 22 1013.7 - 0.0
28/03:00pm 28.6 21.2 -0.5 15 13.6 S 28 37 15 20 1013.8 1013.7 0.0
28/02:30pm 27.6 19.8 -0.5 16 13.1 SSE 30 39 16 21 1014.1 - 0.0
28/02:00pm 27.9 20.1 -1.1 15 13.4 SSE 30 41 16 22 1014.5 - 0.0
28/01:30pm 27.2 19.3 -1.7 15 13.1 SSE 30 41 16 22 1015.1 - 0.0
28/01:19pm 27.2 19.4 -0.8 16 12.9 S 30 56 16 30 1015.4 - 0.0
28/01:00pm 27.2 19.9 0.1 17 12.7 SE 28 41 15 22 1015.7 - 0.0
28/12:30pm 26.2 18.5 0.0 18 12.2 SSE 30 43 16 23 1016.3 - 0.0
28/12:00pm 25.3 17.0 0.0 19 11.6 SSE 33 46 18 25 1016.9 1016.8 0.0
28/11:35am 25.3 18.0 0.0 19 11.7 SSE 28 48 15 26 1017.3 - 0.0
28/11:30am 24.8 17.1 -0.4 19 11.5 SSE 30 43 16 23 1017.4 - 0.0
28/11:06am 23.7 15.1 0.1 21 10.8 SSE 35 54 19 29 1017.8 - 0.0
28/11:00am 23.8 15.2 0.2 21 10.8 SSE 35 43 19 23 1017.9 - 0.0
28/10:30am 23.5 15.0 0.6 22 10.5 SSE 35 46 19 25 1018.2 - 0.0
28/10:00am 22.5 13.9 0.4 23 10.0 SSE 35 52 19 28 1018.3 - 0.0
28/09:57am 22.7 14.5 0.5 23 10.1 SSE 33 52 18 28 1018.3 - 0.0
28/09:30am 21.5 11.7 0.1 24 9.6 SSE 41 50 22 27 1018.1 - 0.0
28/09:00am 20.4 11.9 0.8 27 8.8 SSE 35 50 19 27 1017.9 1017.8 0.0
28/08:46am 20.1 11.5 0.5 27 8.7 SSE 35 54 19 29 1017.8 - 0.0
28/08:30am 19.3 10.7 -0.1 27 8.5 SSE 35 50 19 27 1017.6 - 0.0
28/08:00am 18.6 10.4 0.2 29 8.1 SSE 33 43 18 23 1017.4 - 0.0
28/07:30am 17.5 11.0 0.2 31 7.5 SSE 24 35 13 19 1017.1 - 0.0
28/07:00am 16.9 10.4 0.5 33 7.1 SSE 24 33 13 18 1016.7 - 0.0
28/06:30am 17.0 9.8 0.6 33 7.1 S 28 37 15 20 1016.3 - 0.0
28/06:00am 17.3 11.6 0.5 32 7.3 SSE 20 30 11 16 1016.2 1016.1 0.0
28/05:30am 17.7 11.6 0.4 31 7.5 SSE 22 30 12 16 1016.1 - 0.0
28/05:00am 18.5 11.2 0.2 29 8.0 SSE 28 37 15 20 1016.1 - 0.0
28/04:30am 19.0 11.7 0.1 28 8.3 SSE 28 43 15 23 1015.8 - 0.0
28/04:07am 19.2 11.9 -0.2 27 8.5 SSE 28 46 15 25 1015.8 - 0.0
28/04:00am 19.6 11.9 0.1 27 8.6 SSE 30 46 16 25 1015.8 - 0.0
28/03:30am 19.5 12.3 0.5 28 8.4 SSE 28 39 15 21 1015.7 - 0.0
28/03:00am 19.6 12.5 1.1 29 8.3 S 28 37 15 20 1015.6 1015.5 0.0
28/02:30am 20.0 12.9 1.4 29 8.4 S 28 41 15 22 1015.7 - 0.0
28/02:00am 19.9 13.7 2.3 31 8.1 S 24 32 13 17 1015.9 - 0.0
28/01:30am 20.4 13.9 2.7 31 8.3 S 26 35 14 19 1016.3 - 0.0
28/01:00am 20.5 14.5 3.3 32 8.1 S 24 32 13 17 1016.3 - 0.0
28/12:30am 20.9 14.9 3.6 32 8.3 S 24 32 13 17 1016.4 - 0.0
28/12:00am 20.9 15.4 4.0 33 8.1 S 22 28 12 15 1016.4 1016.3 0.0
 
Date/Time
EST
Temp
°C
App
Temp
°C
Dew
Point
°C
Rel
Hum
%
Delta-T
°C
Wind Press
QNH
hPa
Press
MSL
hPa
Rain since
9am
mm
Dir  Spd
km/h
Gust
km/h
Spd
kts
Gust
kts
27/11:30pm 21.2 16.3 3.9 32 8.3 S 19 24 10 13 1016.6 - 0.0
27/11:00pm 21.5 17.1 4.6 33 8.3 SSE 17 20 9 11 1016.4 - 0.0
27/10:30pm 21.7 17.3 4.7 33 8.3 S 17 22 9 12 1016.5 - 0.0
27/10:00pm 22.8 18.3 4.3 30 9.1 SSE 17 22 9 12 1016.4 - 0.0
27/09:30pm 23.0 18.6 4.5 30 9.1 SSE 17 22 9 12 1016.2 - 0.0
27/09:00pm 23.2 19.2 4.7 30 9.2 SSE 15 19 8 10 1015.9 1015.8 0.0
27/08:30pm 23.1 19.1 5.1 31 9.0 SSE 15 19 8 10 1015.7 - 0.0
27/08:00pm 24.2 19.9 5.1 29 9.6 SSE 17 20 9 11 1015.2 - 0.0
27/07:30pm 24.6 20.7 5.4 29 9.7 SSE 15 17 8 9 1014.8 - 0.0
27/07:00pm 25.5 21.5 5.1 27 10.3 SSE 15 19 8 10 1014.4 - 0.0
27/06:30pm 27.0 21.9 4.1 23 11.5 S 20 28 11 15 1014.0 - 0.0
27/05:30pm 29.5 23.8 4.9 21 12.7 S 24 32 13 17 1013.4 - 0.0
27/05:00pm 30.0 23.1 4.6 20 13.1 S 30 39 16 21 1013.3 - 0.0
27/04:30pm 30.6 24.8 4.4 19 13.5 S 24 33 13 18 1013.1 - 0.0
27/04:00pm 30.7 23.4 4.4 19 13.6 S 32 43 17 23 1013.3 - 0.0
27/03:30pm 30.9 24.0 4.6 19 13.7 SSE 30 39 16 21 1013.1 - 0.0
27/03:00pm 31.1 24.6 4.8 19 13.7 S 28 35 15 19 1013.4 1013.3 0.0
27/02:30pm 30.6 24.0 4.4 19 13.5 S 28 37 15 20 1013.6 - 0.0
27/02:00pm 30.6 23.9 3.6 18 13.8 S 28 37 15 20 1014.2 - 0.0
27/01:30pm 29.9 22.7 3.0 18 13.5 S 30 39 16 21 1014.7 - 0.0
27/01:00pm 30.1 23.1 4.0 19 13.4 SSE 30 41 16 22 1014.9 - 0.0
27/12:30pm 29.7 22.2 3.6 19 13.2 SSE 32 46 17 25 1015.0 - 0.0
27/12:00pm 29.7 22.2 3.6 19 13.2 S 32 48 17 26 1015.5 1015.4 0.0
27/11:30am 28.3 20.2 3.2 20 12.5 SSE 35 46 19 25 1016.0 - 0.0
27/11:00am 27.8 18.6 3.5 21 12.1 SSE 41 52 22 28 1016.3 - 0.0
27/10:30am 27.3 18.1 3.7 22 11.8 SSE 41 50 22 27 1016.7 - 0.0
27/10:00am 26.6 18.2 3.8 23 11.4 SSE 37 50 20 27 1016.8 - 0.0
27/09:30am 25.9 17.3 4.4 25 10.8 SSE 39 54 21 29 1016.7 - 0.0
27/09:00am 24.9 16.6 4.1 26 10.3 SSE 37 50 20 27 1016.3 1016.2 0.0
27/08:47am 24.4 16.5 4.2 27 10.0 SSE 35 56 19 30 1016.2 - 0.0
27/08:30am 24.2 16.6 4.0 27 9.9 SSE 33 46 18 25 1016.2 - 0.0
27/08:00am 23.5 17.7 4.5 29 9.4 SSE 24 33 13 18 1016.2 - 0.0
27/07:30am 22.7 16.9 4.2 30 9.1 SSE 24 33 13 18 1015.6 - 0.0
27/07:00am 22.5 15.9 4.1 30 9.0 SSE 28 39 15 21 1015.2 - 0.0
27/06:30am 23.0 16.5 4.5 30 9.1 SSE 28 37 15 20 1014.7 - 0.0
27/06:00am 23.0 17.0 5.4 32 8.8 S 26 35 14 19 1014.2 1014.1 0.0
27/05:30am 23.1 18.5 6.4 34 8.5 SSE 20 28 11 15 1014.2 - 0.0
27/05:00am 23.3 19.0 7.0 35 8.4 S 19 26 10 14 1013.7 - 0.0
27/04:30am 23.9 18.8 7.5 35 8.6 S 24 32 13 17 1013.6 - 0.0
27/04:00am 24.0 19.0 8.0 36 8.5 S 24 30 13 16 1013.4 - 0.0
27/03:30am 23.9 19.7 8.3 37 8.3 S 20 26 11 14 1013.3 - 0.0
27/03:00am 24.8 19.9 8.3 35 8.8 S 24 33 13 18 1013.3 1013.2 0.0
27/02:30am 24.4 20.5 8.8 37 8.4 S 19 24 10 13 1013.4 - 0.0
27/02:00am 24.2 21.4 10.1 41 7.8 SSE 15 17 8 9 1013.7 - 0.0
27/01:30am 24.1 21.4 11.8 46 7.0 S 17 20 9 11 1013.8 - 0.0
27/01:00am 24.1 22.1 12.7 49 6.6 S 15 19 8 10 1013.9 - 0.0
27/12:30am 25.0 23.3 13.5 48 6.7 S 15 19 8 10 1014.1 - 0.0
27/12:00am 23.7 24.4 17.9 70 3.6 S 11 13 6 7 1014.0 1013.9 0.0
 
Date/Time
EST
Temp
°C
App
Temp
°C
Dew
Point
°C
Rel
Hum
%
Delta-T
°C
Wind Press
QNH
hPa
Press
MSL
hPa
Rain since
9am
mm
Dir  Spd
km/h
Gust
km/h
Spd
kts
Gust
kts
26/11:30pm 24.0 25.4 19.5 76 2.9 S 11 11 6 6 1014.2 - 0.0
26/11:00pm 23.6 25.2 19.1 76 2.9 S 9 13 5 7 1014.0 - 0.0
26/10:30pm 23.9 25.2 19.4 76 2.9 S 11 13 6 7 1014.0 - 0.0
26/10:00pm 24.5 26.5 19.1 72 3.4 SSE 7 9 4 5 1013.9 - 0.0
26/09:30pm 24.5 26.5 19.1 72 3.4 SSW 7 9 4 5 1013.7 - 0.0
26/09:00pm 25.2 26.9 19.3 70 3.8 SSW 9 11 5 6 1013.4 1013.3 0.0
26/08:30pm 25.4 27.6 19.1 68 4.0 W 6 7 3 4 1013.3 - 0.0
26/08:00pm 25.6 27.4 18.8 66 4.3 NW 7 9 4 5 1012.8 - 0.0
26/07:30pm 26.8 28.4 19.2 63 4.9 N 9 11 5 6 1012.5 - 0.0
26/07:00pm 27.8 29.0 19.1 59 5.6 N 11 15 6 8 1012.0 - 0.0
26/06:30pm 28.4 28.7 18.8 56 6.2 NNE 15 19 8 10 1011.5 - 0.0
26/06:00pm 29.5 29.3 18.6 52 7.0 NNE 17 20 9 11 1011.2 1011.1 0.0
26/05:30pm 30.6 30.3 19.6 51 7.2 N 20 24 11 13 1010.9 - 0.0
26/05:00pm 31.7 31.3 19.0 47 8.3 NE 19 22 10 12 1010.5 - 0.0
26/04:30pm 32.8 32.7 19.6 45 8.7 NE 19 26 10 14 1010.3 - 0.0
26/04:00pm 34.5 34.7 19.3 40 10.0 NNE 17 24 9 13 1009.9 - 0.0
26/03:30pm 34.5 35.4 20.1 43 9.6 NE 15 22 8 12 1010.0 - 0.0
26/03:00pm 34.0 34.0 18.9 41 9.9 NE 17 24 9 13 1010.2 1010.1 0.0
26/02:30pm 34.1 34.3 19.4 42 9.7 NE 17 26 9 14 1010.5 - 0.0
26/02:00pm 34.0 33.4 20.4 45 9.1 NE 24 32 13 17 1010.9 - 0.0
26/01:30pm 34.7 33.5 16.1 33 11.8 SE 17 24 9 13 1011.4 - 0.0
26/01:00pm 34.0 33.1 15.9 33 11.4 SE 15 24 8 13 1011.7 - 0.0
26/12:30pm 33.5 32.6 15.9 34 11.0 SSE 15 20 8 11 1012.3 - 0.0
26/12:00pm 32.9 32.3 16.7 38 10.3 S 15 24 8 13 1012.9 1012.8 0.0
26/11:30am 32.1 31.6 17.9 42 9.1 S 17 20 9 11 1013.3 - 0.0
26/11:00am 31.3 31.4 18.3 46 8.4 S 15 20 8 11 1013.6 - 0.0
26/10:30am 29.7 29.3 18.8 52 7.0 SSW 19 26 10 14 1013.8 - 0.0
26/10:00am 28.2 28.4 19.4 59 5.7 S 17 20 9 11 1013.7 - 0.0
26/09:30am 27.0 26.9 19.6 64 4.8 S 19 24 10 13 1013.7 - 0.0
26/09:00am 25.6 25.9 20.4 73 3.4 SSW 19 20 10 11 1013.6 1013.5 0.0
26/08:30am 24.4 25.0 21.1 82 2.2 S 19 22 10 12 1013.4 - 0.0
26/08:00am 23.3 26.2 21.7 91 1.1 SSE 9 11 5 6 1012.8 - 0.0
26/07:30am 22.6 25.3 21.4 93 0.8 S 9 11 5 6 1012.4 - 0.0
26/07:00am 22.4 25.1 21.4 94 0.7 S 9 11 5 6 1012.0 - 0.0
26/06:30am 22.4 25.1 21.4 94 0.7 S 9 11 5 6 1011.6 - 0.0
26/06:00am 22.6 25.4 21.6 94 0.7 SSW 9 11 5 6 1011.3 1011.2 0.0
26/05:30am 22.9 25.5 21.9 94 0.7 SSW 11 15 6 8 1011.2 - 0.0
26/05:00am 23.1 25.5 22.3 95 0.5 SSW 13 15 7 8 1011.1 - 0.0
26/04:30am 22.9 25.3 22.2 96 0.5 SW 13 15 7 8 1011.1 - 0.0
26/04:00am 22.4 25.3 21.7 96 0.5 WSW 9 11 5 6 1011.3 - 0.0
26/03:30am 22.0 24.5 21.0 94 0.7 WSW 9 11 5 6 1011.2 - 0.0
26/03:00am 22.0 24.8 20.8 93 0.8 W 7 9 4 5 1011.2 1011.1 0.0
26/02:30am 22.3 24.9 20.4 89 1.2 NW 7 7 4 4 1011.2 - 0.0
26/02:00am 22.7 25.3 21.2 91 1.0 NW 9 11 5 6 1011.5 - 0.0
26/01:30am 22.7 25.4 20.6 88 1.4 NW 7 9 4 5 1011.9 - 0.0
26/01:00am 23.0 25.3 20.7 87 1.5 NW 9 9 5 5 1012.2 - 0.0
26/12:30am 23.2 25.9 20.7 86 1.6 WNW 7 9 4 5 1012.4 - 0.0
26/12:00am 23.1 25.3 20.4 85 1.8 W 9 11 5 6 1012.4 1012.3 0.0
 
Date/Time
EST
Temp
°C
App
Temp
°C
Dew
Point
°C
Rel
Hum
%
Delta-T
°C
Wind Press
QNH
hPa
Press
MSL
hPa
Rain since
9am
mm
Dir  Spd
km/h
Gust
km/h
Spd
kts
Gust
kts
25/11:30pm 23.3 26.0 20.6 85 1.8 WNW 7 9 4 5 1012.5 - 0.0
25/11:00pm 23.6 26.2 20.5 83 2.0 WNW 7 9 4 5 1012.5 - 0.0
25/10:30pm 24.0 26.0 20.7 82 2.2 NW 11 11 6 6 1012.7 - 0.0
25/10:00pm 24.1 26.6 20.2 79 2.5 NW 7 9 4 5 1012.8 - 0.0
25/09:30pm 24.7 26.5 20.4 77 2.8 NNW 11 11 6 6 1012.9 - 0.0
25/09:00pm 24.9 27.4 20.2 75 3.1 NNW 7 9 4 5 1012.7 1012.6 0.0
25/08:30pm 25.7 28.0 20.7 74 3.3 NNW 9 9 5 5 1012.6 - 0.0
25/08:00pm 26.6 28.7 20.9 71 3.8 N 11 13 6 7 1012.3 - 0.0
25/07:30pm 27.0 28.3 20.1 66 4.5 N 13 15 7 8 1011.9 - 0.0
25/07:00pm 27.5 28.8 19.3 61 5.3 N 11 13 6 7 1011.6 - 0.0
25/06:30pm 28.8 30.0 19.1 55 6.3 N 11 11 6 6 1011.3 - 0.0

Other Formats:

Comma delimited format used in spreadsheet applications
http://www.bom.gov.au/fwo/IDQ60801/IDQ60801.94260.axf

JavaScript Object Notation format (JSON) in row-major order
http://www.bom.gov.au/fwo/IDQ60801/IDQ60801.94260.json